Data for 11/16/2014

Time Sea-Level Adjusted Pressure Absolute Pressure Temperature Relative Humidity Dew Point   
(mb) (inHg) (mb) (inHg) (C) (F) (%) (C) (F)
00:05 1025 30.27 854 25.22 -16.7 2 71 -20.7 -5.3
00:10 1025 30.27 854 25.22 -16.3 2.6 70 -20.6 -5.1
00:15 1025 30.27 854 25.22 -16.7 2 71 -20.7 -5.3
00:20 1025 30.27 854 25.22 -16.9 1.6 72 -20.8 -5.4
00:25 1025 30.27 854 25.22 -16.9 1.7 73 -20.5 -5
00:30 1025 30.27 854 25.22 -16.9 1.5 72 -20.8 -5.5
00:35 1025 30.27 854 25.22 -17 1.4 72 -20.9 -5.6
00:40 1025 30.27 854 25.22 -17.3 0.8 73 -21 -5.8
00:45 1025 30.27 854 25.22 -17.1 1.2 71 -21.3 -6.3
00:50 1025 30.27 854 25.22 -16.9 1.6 70 -21.2 -6.1
00:55 1025 30.27 854 25.22 -16.7 2 69 -21.1 -6
01:00 1025 30.27 854 25.22 -16.5 2.4 69 -20.8 -5.5
01:05 1025 30.27 854 25.22 -16.3 2.6 69 -20.7 -5.2
01:10 1025 30.27 855 25.25 -16.4 2.4 68 -21 -5.9
01:15 1025 30.27 855 25.25 -16.6 2.1 70 -20.9 -5.5
01:20 1025 30.27 855 25.25 -16.6 2.2 71 -20.7 -5.3
01:25 1025 30.27 855 25.25 -16.5 2.4 70 -20.7 -5.3
01:30 1025 30.27 855 25.25 -16.5 2.3 71 -20.6 -5.1
01:35 1025 30.27 855 25.25 -16.5 2.4 71 -20.5 -4.9
01:40 1025 30.27 855 25.25 -16.4 2.5 71 -20.5 -4.9
01:45 1025 30.27 855 25.25 -16.1 3.1 69 -20.4 -4.8
01:50 1025 30.27 855 25.25 -16.1 3.1 70 -20.4 -4.7
01:55 1025 30.27 855 25.25 -16.5 2.3 73 -20.3 -4.6
02:00 1025 30.27 855 25.25 -16.6 2 74 -20.3 -4.5
02:05 1025 30.27 855 25.25 -16.7 2 75 -20 -4.1
02:10 1025 30.27 855 25.25 -16.5 2.3 71 -20.5 -5
02:15 1025 30.27 855 25.25 -16.3 2.6 68 -20.9 -5.6
02:20 1025 30.27 855 25.25 -16.4 2.5 69 -20.8 -5.4
02:25 1025 30.27 855 25.25 -16.4 2.4 70 -20.7 -5.2
02:30 1026 30.3 855 25.25 -16.4 2.4 71 -20.6 -5.1
02:35 1025 30.27 855 25.25 -16.4 2.6 71 -20.5 -4.9
02:40 1026 30.3 855 25.25 -16.2 2.8 71 -20.3 -4.5
02:45 1026 30.3 855 25.25 -16.2 2.8 71 -20.3 -4.5
02:50 1026 30.3 855 25.25 -16.3 2.7 72 -20.3 -4.6
02:55 1026 30.3 855 25.25 -16.4 2.6 72 -20.3 -4.5
03:00 1026 30.3 855 25.25 -16.3 2.6 72 -20.2 -4.4
03:05 1026 30.3 855 25.25 -16.3 2.7 73 -20.2 -4.3
03:10 1026 30.3 855 25.25 -16.2 2.8 73 -20.1 -4.1
03:15 1026 30.3 855 25.25 -16.3 2.7 73 -20 -4
03:20 1026 30.3 855 25.25 -16.3 2.7 74 -19.9 -3.9
03:25 1026 30.3 855 25.25 -16.2 2.8 73 -20 -3.9
03:30 1026 30.3 855 25.25 -16.2 2.8 73 -20 -4
03:35 1026 30.3 855 25.25 -16.3 2.7 74 -19.9 -3.8
03:40 1026 30.3 855 25.25 -16.2 2.9 75 -19.7 -3.5
03:45 1026 30.3 855 25.25 -16.4 2.4 76 -19.7 -3.5
03:50 1026 30.3 856 25.28 -16.5 2.2 75 -19.9 -3.9
03:55 1026 30.3 856 25.28 -16.3 2.7 74 -19.9 -3.9
04:00 1026 30.3 856 25.28 -16.1 3 73 -19.9 -3.8
04:05 1026 30.3 856 25.28 -16.1 3.1 73 -19.8 -3.6
04:10 1026 30.3 856 25.28 -15.7 3.7 72 -19.7 -3.4
04:15 1026 30.3 856 25.28 -15.6 4 71 -19.7 -3.5
04:20 1027 30.33 856 25.28 -15.4 4.3 70 -19.7 -3.5
04:25 1027 30.33 856 25.28 -15.2 4.7 69 -19.6 -3.3
04:30 1027 30.33 856 25.28 -15.1 4.7 70 -19.4 -3
04:35 1027 30.33 856 25.28 -15.2 4.6 72 -19.2 -2.6
04:40 1026 30.3 856 25.28 -15.3 4.5 74 -19 -2.1
04:45 1026 30.3 856 25.28 -15.4 4.3 75 -18.8 -1.9
04:50 1026 30.3 855 25.25 -15.7 3.8 76 -18.9 -2.1
04:55 1026 30.3 856 25.28 -15.7 3.7 76 -19.1 -2.4
05:00 1027 30.33 856 25.28 -15.7 3.8 75 -19.1 -2.4
05:05 1026 30.3 856 25.28 -15.6 3.9 76 -18.9 -2.1
05:10 1026 30.3 856 25.28 -15.5 4 76 -18.9 -2.1
05:15 1027 30.33 856 25.28 -15.5 4.2 73 -19.3 -2.7
05:20 1027 30.33 856 25.28 -15.4 4.2 75 -18.9 -2
05:25 1027 30.33 856 25.28 -15.4 4.2 75 -18.9 -2
05:30 1027 30.33 856 25.28 -15.6 3.9 77 -18.7 -1.7
05:35 1027 30.33 856 25.28 -15.6 3.9 76 -18.9 -2.1
05:40 1027 30.33 856 25.28 -15.6 4 75 -19 -2.2
05:45 1027 30.33 856 25.28 -15.6 3.9 76 -18.9 -2
05:50 1027 30.33 856 25.28 -15.6 4 75 -19.1 -2.3
05:55 1027 30.33 856 25.28 -15.5 4.2 74 -19 -2.3
06:00 1027 30.33 856 25.28 -15.4 4.3 75 -18.9 -1.9
06:05 1027 30.33 856 25.28 -15.3 4.5 74 -19 -2.1
06:10 1027 30.33 856 25.28 -15.2 4.7 73 -19 -2.2
06:15 1027 30.33 856 25.28 -15.2 4.7 73 -19 -2.2
06:20 1027 30.33 856 25.28 -15.2 4.6 71 -19.4 -3
06:25 1027 30.33 856 25.28 -15.2 4.6 70 -19.5 -3.1
06:30 1027 30.33 857 25.31 -15.1 4.8 69 -19.5 -3.2
06:35 1027 30.33 857 25.31 -14.8 5.3 70 -19.1 -2.4
06:40 1027 30.33 857 25.31 -14.6 5.7 70 -18.9 -2
06:45 1027 30.33 857 25.31 -14.5 5.9 71 -18.7 -1.7
06:50 1027 30.33 857 25.31 -14.5 5.9 71 -18.6 -1.5
06:55 1028 30.36 857 25.31 -14.4 6.1 70 -18.7 -1.6
07:00 1028 30.36 857 25.31 -14.4 6.2 71 -18.6 -1.4
07:05 1028 30.36 857 25.31 -14.4 6.1 73 -18.2 -0.8
07:10 1028 30.36 857 25.31 -14.7 5.5 73 -18.5 -1.2
07:15 1028 30.36 857 25.31 -14.7 5.6 75 -18.2 -0.8
07:20 1028 30.36 857 25.31 -14.5 6 73 -18.4 -1.1
07:25 1028 30.36 857 25.31 -14.5 5.8 73 -18.3 -1
07:30 1028 30.36 857 25.31 -14.6 5.8 73 -18.4 -1.2
07:35 1028 30.36 857 25.31 -14.4 6 72 -18.5 -1.2
07:40 1028 30.36 857 25.31 -14.3 6.2 70 -18.7 -1.6
07:45 1028 30.36 858 25.34 -14.3 6.4 70 -18.7 -1.6
07:50 1028 30.36 858 25.34 -14.2 6.4 68 -19 -2.1
07:55 1028 30.36 858 25.34 -14.2 6.4 68 -18.9 -2
08:00 1028 30.36 858 25.34 -14.1 6.6 68 -18.9 -2
08:05 1028 30.36 858 25.34 -14.1 6.6 70 -18.4 -1.1
08:10 1028 30.36 858 25.34 -14.1 6.5 72 -18.2 -0.7
08:15 1028 30.36 858 25.34 -14.2 6.5 74 -17.8 -0.1
08:20 1029 30.39 858 25.34 -14.2 6.5 74 -17.9 -0.2
08:25 1028 30.36 858 25.34 -14.1 6.5 74 -17.8 -0
08:30 1029 30.39 858 25.34 -14 6.8 75 -17.5 0.5
08:35 1029 30.39 858 25.34 -14 6.8 74 -17.7 0.2
08:40 1029 30.39 858 25.34 -14.1 6.7 74 -17.7 0.2
08:45 1029 30.39 858 25.34 -14 6.7 75 -17.6 0.3
08:50 1029 30.39 858 25.34 -14 6.9 74 -17.7 0.1
08:55 1029 30.39 858 25.34 -13.9 7 73 -17.8 -0
09:00 1029 30.39 858 25.34 -13.8 7.2 73 -17.6 0.3
09:05 1029 30.39 858 25.34 -13.6 7.5 73 -17.6 0.4
09:10 1029 30.39 858 25.34 -13.5 7.7 74 -17.2 1
09:15 1029 30.39 858 25.34 -13.3 8.1 73 -17.1 1.2
09:20 1029 30.39 858 25.34 -13.2 8.3 74 -16.9 1.5
09:25 1029 30.39 858 25.34 -13 8.6 73 -16.9 1.6
09:30 1029 30.39 858 25.34 -12.9 8.8 73 -16.7 1.9
09:35 1029 30.39 858 25.34 -12.6 9.4 73 -16.5 2.2
09:40 1029 30.39 858 25.34 -12.4 9.7 73 -16.2 2.8
09:45 1029 30.39 858 25.34 -12.1 10.2 72 -16.2 2.9
09:50 1029 30.39 858 25.34 -11.8 10.8 71 -16.1 3
09:55 1029 30.39 858 25.34 -11.6 11.2 69 -16.2 2.8
10:00 1029 30.39 858 25.34 -11 12.3 60 -17.4 0.8
10:05 1029 30.39 858 25.34 -10.2 13.7 57 -17.1 1.2
10:10 1029 30.39 858 25.34 -9.6 14.7 49 -18.4 -1.1
10:15 1029 30.39 858 25.34 -9.4 15 61 -15.5 4
10:20 1029 30.39 858 25.34 -9.4 15 59 -16.1 3
10:25 1029 30.39 858 25.34 -9.3 15.3 53 -17.2 1.1
10:30 1029 30.39 858 25.34 -9.1 15.7 55 -16.6 2.1
10:35 1029 30.39 858 25.34 -8.6 16.5 47 -18 -0.4
10:40 1029 30.39 858 25.34 -8.5 16.8 53 -16.4 2.4
10:45 1029 30.39 858 25.34 -8.4 16.9 51 -16.7 1.9
10:50 1029 30.39 858 25.34 -8.3 17.1 52 -16.5 2.3
10:55 1029 30.39 858 25.34 -8.1 17.4 44 -18.3 -1
11:00 1029 30.39 858 25.34 -8.4 16.9 47 -17.7 0.1
11:05 1029 30.39 858 25.34 -8.5 16.7 50 -17.2 1.1
11:10 1029 30.39 858 25.34 -8.3 17 47 -17.7 0.1
11:15 1029 30.39 858 25.34 -8.3 17 51 -16.9 1.7
11:20 1029 30.39 858 25.34 -8.2 17.3 52 -16.3 2.6
11:25 1029 30.39 859 25.37 -8.1 17.5 53 -16.1 3
11:30 1029 30.39 859 25.37 -7.8 18 55 -15.3 4.5
11:35 1029 30.39 859 25.37 -7.7 18.2 56 -15.1 4.9
11:40 1029 30.39 859 25.37 -7.7 18.2 57 -14.8 5.4
11:45 1029 30.39 859 25.37 -7.7 18.1 57 -14.7 5.5
11:50 1029 30.39 858 25.34 -7.9 17.7 57 -15 4.9
11:55 1029 30.39 859 25.37 -8.1 17.4 56 -15.4 4.3
12:00 1029 30.39 859 25.37 -7.7 18.1 55 -15.2 4.6
12:05 1029 30.39 858 25.34 -7.4 18.6 54 -15.1 4.7
12:10 1029 30.39 858 25.34 -7.7 18.2 56 -15 5
12:15 1029 30.39 858 25.34 -7.3 18.8 53 -15.4 4.3
12:20 1029 30.39 858 25.34 -6.9 19.5 51 -15.5 4.1
12:25 1029 30.39 858 25.34 -6.6 20.2 50 -15.4 4.2
12:30 1029 30.39 858 25.34 -6.4 20.6 48 -15.8 3.6
12:35 1029 30.39 858 25.34 -6 21.1 46 -15.8 3.5
12:40 1029 30.39 858 25.34 -5.8 21.6 43 -16.6 2.2
12:45 1029 30.39 858 25.34 -5.6 21.8 41 -17 1.5
12:50 1029 30.39 858 25.34 -5.8 21.5 42 -16.8 1.8
12:55 1029 30.39 858 25.34 -5.6 22 42 -16.7 1.9
13:00 1029 30.39 858 25.34 -5.4 22.2 41 -16.7 1.9
13:05 1029 30.39 858 25.34 -5.5 22.1 46 -15.4 4.3
13:10 1029 30.39 858 25.34 -6.1 21.1 50 -15 5
13:15 1029 30.39 858 25.34 -5.9 21.4 48 -15.2 4.7
13:20 1029 30.39 858 25.34 -5.7 21.7 46 -15.6 4
13:25 1029 30.39 858 25.34 -5.8 21.6 46 -15.7 3.7
13:30 1029 30.39 858 25.34 -5.9 21.4 46 -15.7 3.7
13:35 1029 30.39 858 25.34 -6.5 20.2 50 -15.4 4.2
13:40 1029 30.39 858 25.34 -7 19.4 48 -16.2 2.9
13:45 1029 30.39 858 25.34 -6.8 19.7 48 -16.1 3
13:50 1029 30.39 858 25.34 -6.6 20 48 -16 3.2
13:55 1029 30.39 858 25.34 -6.3 20.6 47 -15.9 3.5
14:00 1029 30.39 858 25.34 -6.2 20.8 46 -16.1 3.1
14:05 1029 30.39 858 25.34 -6.4 20.6 46 -16.1 3
14:10 1029 30.39 858 25.34 -6.7 19.9 48 -16 3.3
14:15 1029 30.39 858 25.34 -6.7 19.9 47 -16.3 2.6
14:20 1029 30.39 858 25.34 -6.6 20.1 45 -16.6 2.1
14:25 1029 30.39 858 25.34 -6.2 20.8 47 -15.9 3.4
14:30 1029 30.39 858 25.34 -6.2 20.9 43 -16.9 1.5
14:35 1029 30.39 858 25.34 -6.9 19.6 46 -16.7 2
14:40 1028 30.36 858 25.34 -6.8 19.8 44 -17 1.4
14:45 1028 30.36 858 25.34 -6.9 19.6 47 -16.5 2.3
14:50 1028 30.36 857 25.31 -7.1 19.2 48 -16.3 2.6
14:55 1028 30.36 857 25.31 -7.1 19.1 45 -17.1 1.3
15:00 1028 30.36 857 25.31 -7 19.5 43 -17.6 0.3
15:05 1028 30.36 857 25.31 -6.8 19.7 45 -16.8 1.7
15:10 1028 30.36 857 25.31 -6.4 20.5 42 -17.3 0.8
15:15 1028 30.36 857 25.31 -6.6 20.2 47 -16.2 2.9
15:20 1028 30.36 857 25.31 -6.4 20.5 45 -16.4 2.5
15:25 1028 30.36 857 25.31 -5.9 21.4 38 -17.9 -0.3
15:30 1028 30.36 857 25.31 -5.8 21.5 42 -16.9 1.6
15:35 1028 30.36 857 25.31 -5.9 21.4 44 -16.2 2.8
15:40 1028 30.36 857 25.31 -5.9 21.4 44 -16.4 2.5
15:45 1028 30.36 857 25.31 -6.3 20.7 46 -16.2 2.8
15:50 1028 30.36 857 25.31 -6.3 20.6 45 -16.3 2.6
15:55 1028 30.36 857 25.31 -6.1 21.1 43 -16.8 1.8
16:00 1028 30.36 857 25.31 -6 21.1 42 -17 1.4
16:05 1028 30.36 857 25.31 -6.2 20.9 43 -16.7 1.9
16:10 1028 30.36 857 25.31 -6 21.3 44 -16.4 2.4
16:15 1028 30.36 857 25.31 -5.9 21.3 44 -16.2 2.8
16:20 1028 30.36 857 25.31 -6.2 20.9 44 -16.4 2.4
16:25 1028 30.36 857 25.31 -6.3 20.8 46 -16 3.2
16:30 1028 30.36 857 25.31 -6.2 20.9 47 -15.8 3.6
16:35 1028 30.36 857 25.31 -6.1 21 47 -15.7 3.8
16:40 1028 30.36 857 25.31 -6.1 21 47 -15.8 3.5
16:45 1028 30.36 857 25.31 -6.2 20.8 46 -16.1 3
16:50 1028 30.36 857 25.31 -6.4 20.4 47 -16 3.1
16:55 1028 30.36 857 25.31 -6.3 20.6 47 -15.9 3.3
17:00 1028 30.36 857 25.31 -6.3 20.7 46 -16.1 3.1
17:05 1028 30.36 857 25.31 -6.4 20.6 48 -15.8 3.6
17:10 1028 30.36 857 25.31 -6.4 20.6 47 -16 3.2
17:15 1028 30.36 857 25.31 -6.4 20.5 47 -16 3.2
17:20 1028 30.36 857 25.31 -6.4 20.5 46 -16.3 2.6
17:25 1028 30.36 857 25.31 -6.6 20.2 46 -16.3 2.7
17:30 1028 30.36 857 25.31 -6.6 20.1 46 -16.5 2.4
17:35 1028 30.36 857 25.31 -6.8 19.8 47 -16.3 2.6
17:40 1028 30.36 857 25.31 -6.8 19.8 48 -16.1 3
17:45 1028 30.36 857 25.31 -6.7 20 47 -16.3 2.7
17:50 1028 30.36 857 25.31 -6.7 19.9 46 -16.6 2.1
17:55 1028 30.36 857 25.31 -6.7 19.9 49 -15.7 3.8
18:00 1028 30.36 857 25.31 -6.7 19.9 50 -15.4 4.3
18:05 1028 30.36 857 25.31 -6.8 19.8 50 -15.5 4.1
18:10 1028 30.36 857 25.31 -6.8 19.8 48 -15.9 3.3
18:15 1028 30.36 857 25.31 -7 19.5 51 -15.6 3.9
18:20 1028 30.36 857 25.31 -6.9 19.5 48 -16.1 3
18:25 1028 30.36 857 25.31 -6.9 19.6 49 -15.9 3.4
18:30 1028 30.36 857 25.31 -6.9 19.5 49 -16 3.1
18:35 1028 30.36 857 25.31 -6.8 19.7 49 -15.9 3.5
18:40 1028 30.36 857 25.31 -6.9 19.7 47 -16.5 2.4
18:45 1028 30.36 857 25.31 -6.8 19.7 51 -15.4 4.3
18:50 1028 30.36 857 25.31 -6.9 19.6 48 -16.2 2.8
18:55 1028 30.36 857 25.31 -6.9 19.6 54 -14.7 5.6
19:00 1028 30.36 857 25.31 -7.1 19.1 59 -13.8 7.2
19:05 1028 30.36 857 25.31 -7.3 18.8 59 -14 6.7
19:10 1028 30.36 857 25.31 -7.5 18.6 61 -13.8 7.2
19:15 1028 30.36 857 25.31 -7.6 18.4 64 -13.3 8
19:20 1028 30.36 857 25.31 -7.7 18.1 65 -13.3 8.1
19:25 1028 30.36 857 25.31 -7.7 18.1 67 -12.8 9
19:30 1028 30.36 857 25.31 -7.8 17.9 67 -12.8 8.9
19:35 1028 30.36 857 25.31 -7.9 17.7 69 -12.7 9.1
19:40 1028 30.36 857 25.31 -8 17.7 70 -12.5 9.5
19:45 1028 30.36 857 25.31 -8 17.6 68 -12.9 8.7
19:50 1028 30.36 857 25.31 -8.2 17.3 68 -13 8.5
19:55 1028 30.36 857 25.31 -8.2 17.3 68 -13.1 8.4
20:00 1028 30.36 857 25.31 -8.2 17.2 69 -12.9 8.7
20:05 1028 30.36 857 25.31 -8.1 17.4 69 -12.9 8.8
20:10 1028 30.36 857 25.31 -8.2 17.2 70 -12.8 8.9
20:15 1028 30.36 857 25.31 -8.5 16.6 70 -13 8.6
20:20 1028 30.36 857 25.31 -9.1 15.6 69 -13.8 7.1
20:25 1028 30.36 857 25.31 -9.2 15.4 67 -14.2 6.4
20:30 1028 30.36 857 25.31 -9.2 15.5 65 -14.5 5.8
20:35 1028 30.36 857 25.31 -9.2 15.4 66 -14.5 6
20:40 1028 30.36 857 25.31 -9.2 15.4 67 -14.2 6.4
20:45 1028 30.36 857 25.31 -9.2 15.5 65 -14.5 5.8
20:50 1028 30.36 857 25.31 -9.1 15.6 64 -14.7 5.5
20:55 1028 30.36 857 25.31 -9.1 15.7 65 -14.5 5.8
21:00 1028 30.36 857 25.31 -9.3 15.2 65 -14.7 5.6
21:05 1028 30.36 857 25.31 -9.3 15.2 65 -14.8 5.4
21:10 1028 30.36 857 25.31 -9.4 15.1 65 -14.9 5.3
21:15 1028 30.36 857 25.31 -9.5 14.9 65 -14.9 5.2
21:20 1028 30.36 857 25.31 -9.6 14.8 66 -14.9 5.2
21:25 1028 30.36 858 25.34 -9.7 14.6 65 -15.1 4.8
21:30 1028 30.36 858 25.34 -9.7 14.5 67 -14.8 5.3
21:35 1028 30.36 858 25.34 -9.9 14.3 66 -15.1 4.8
21:40 1028 30.36 858 25.34 -10 14.1 66 -15.1 4.9
21:45 1028 30.36 858 25.34 -10.1 13.8 67 -15.2 4.6
21:50 1028 30.36 858 25.34 -10.3 13.5 66 -15.4 4.3
21:55 1028 30.36 858 25.34 -10.5 13.1 68 -15.3 4.5
22:00 1029 30.39 858 25.34 -10.4 13.3 65 -15.8 3.5
22:05 1028 30.36 858 25.34 -10.4 13.3 64 -15.9 3.4
22:10 1029 30.39 858 25.34 -10.2 13.6 63 -15.9 3.4
22:15 1028 30.36 858 25.34 -10.6 13 68 -15.3 4.4
22:20 1028 30.36 858 25.34 -11 12.3 72 -15.1 4.8
22:25 1028 30.36 858 25.34 -11.1 12.1 73 -14.9 5.1
22:30 1028 30.36 858 25.34 -11.4 11.5 80 -14.2 6.5
22:35 1028 30.36 858 25.34 -11.5 11.4 78 -14.6 5.8
22:40 1028 30.36 858 25.34 -11.2 11.9 79 -14.1 6.7
22:45 1028 30.36 858 25.34 -11 12.2 77 -14.2 6.4
22:50 1028 30.36 858 25.34 -10.9 12.4 75 -14.5 5.9
22:55 1028 30.36 858 25.34 -11.1 12 76 -14.5 5.9
23:00 1028 30.36 858 25.34 -10.9 12.4 76 -14.4 6.2
23:05 1028 30.36 858 25.34 -11.1 12 77 -14.4 6.1
23:10 1028 30.36 858 25.34 -11.3 11.6 78 -14.4 6
23:15 1028 30.36 858 25.34 -11.2 11.8 79 -14.3 6.3
23:20 1028 30.36 858 25.34 -10.8 12.5 73 -14.8 5.3
23:25 1029 30.39 858 25.34 -10.5 13.1 73 -14.4 6.1
23:30 1029 30.39 858 25.34 -11.1 12.1 78 -14.2 6.4
23:35 1029 30.39 858 25.34 -11.7 11 81 -14.2 6.4
23:40 1029 30.39 858 25.34 -11.2 11.9 76 -14.6 5.8
23:45 1029 30.39 858 25.34 -10.7 12.7 75 -14.3 6.2
23:50 1029 30.39 858 25.34 -10.5 13 72 -14.7 5.5
23:55 1029 30.39 858 25.34 -10 14 70 -14.4 6
24:00 1029 30.39 858 25.34 -10.1 13.7 69 -14.7 5.5